createdAt,value
2022-09-07T00:00:44.067Z,14.81
2022-09-07T00:03:13.363Z,14.77
2022-09-07T00:05:49.478Z,14.74
2022-09-07T00:08:19.043Z,14.73
2022-09-07T00:10:58.796Z,14.71
2022-09-07T00:13:29.051Z,14.73
2022-09-07T00:15:56.835Z,14.72
2022-09-07T00:18:25.194Z,14.69
2022-09-07T00:21:00.784Z,14.68
2022-09-07T00:23:29.985Z,14.71
2022-09-07T00:26:02.596Z,14.71
2022-09-07T00:28:30.360Z,14.66
2022-09-07T00:30:58.228Z,14.68
2022-09-07T00:33:26.419Z,14.75
2022-09-07T00:35:55.048Z,14.66
2022-09-07T00:38:22.360Z,14.65
2022-09-07T00:40:49.734Z,14.59
2022-09-07T00:43:29.760Z,14.63
2022-09-07T00:45:57.024Z,14.55
2022-09-07T00:48:31.406Z,14.57
2022-09-07T00:51:03.079Z,14.56
2022-09-07T00:53:41.198Z,14.61
2022-09-07T00:56:10.103Z,14.60
2022-09-07T00:58:41.632Z,14.51
2022-09-07T01:01:10.222Z,14.50
2022-09-07T01:03:42.457Z,14.49
2022-09-07T01:06:29.957Z,14.46
2022-09-07T01:09:02.476Z,14.39
2022-09-07T01:11:32.596Z,14.34
2022-09-07T01:13:59.868Z,14.34
2022-09-07T01:17:01.536Z,14.29
2022-09-07T01:19:49.308Z,14.34
2022-09-07T01:22:53.678Z,14.35
2022-09-07T01:25:23.933Z,14.32
2022-09-07T01:28:02.054Z,14.31
2022-09-07T01:30:35.203Z,14.29
2022-09-07T01:33:15.261Z,14.30
2022-09-07T01:36:09.286Z,14.27
2022-09-07T01:38:36.666Z,14.26
2022-09-07T01:41:14.638Z,14.22
2022-09-07T01:43:54.348Z,14.25
2022-09-07T01:46:44.420Z,14.23
2022-09-07T01:49:26.709Z,14.25
2022-09-07T01:52:03.766Z,14.30
2022-09-07T01:54:36.945Z,14.35
2022-09-07T01:57:10.591Z,14.30
2022-09-07T02:00:09.892Z,14.31
2022-09-07T02:02:48.275Z,14.26
2022-09-07T02:05:21.746Z,14.24
2022-09-07T02:07:53.989Z,14.24
2022-09-07T02:10:39.021Z,14.30
2022-09-07T02:13:38.578Z,14.31
2022-09-07T02:16:16.981Z,14.32
2022-09-07T02:18:50.626Z,14.29
2022-09-07T02:21:26.424Z,14.36
2022-09-07T02:23:59.837Z,14.33
2022-09-07T02:26:29.486Z,14.33
2022-09-07T02:28:57.435Z,14.34
2022-09-07T02:31:27.396Z,14.37
2022-09-07T02:33:55.494Z,14.37
2022-09-07T02:36:30.756Z,14.38
2022-09-07T02:38:58.048Z,14.33
2022-09-07T02:41:32.074Z,14.31
2022-09-07T02:44:01.183Z,14.35
2022-09-07T02:46:46.005Z,14.33
2022-09-07T02:49:43.868Z,14.31
2022-09-07T02:52:28.026Z,14.40
2022-09-07T02:55:29.272Z,14.40
2022-09-07T02:58:05.580Z,14.31
2022-09-07T03:00:40.328Z,14.29
2022-09-07T03:03:44.423Z,14.26
2022-09-07T03:06:23.752Z,14.31
2022-09-07T03:08:54.679Z,14.25
2022-09-07T03:11:22.633Z,14.21
2022-09-07T03:13:49.774Z,14.28
2022-09-07T03:16:17.007Z,14.25
2022-09-07T03:18:44.548Z,14.16
2022-09-07T03:21:16.923Z,14.18
2022-09-07T03:23:55.201Z,14.15
2022-09-07T03:26:25.194Z,14.11
2022-09-07T03:28:52.427Z,14.10
2022-09-07T03:31:20.256Z,14.06
2022-09-07T03:33:47.550Z,14.02
2022-09-07T03:36:14.762Z,14.06
2022-09-07T03:38:42.055Z,14.09
2022-09-07T03:41:09.409Z,14.11
2022-09-07T03:43:36.846Z,14.09
2022-09-07T03:46:06.078Z,14.15
2022-09-07T03:48:35.310Z,14.15
2022-09-07T03:51:06.047Z,14.24
2022-09-07T03:53:35.615Z,14.29
2022-09-07T03:56:08.857Z,14.23
2022-09-07T03:58:36.646Z,14.27
2022-09-07T04:01:10.193Z,14.29
2022-09-07T04:03:37.956Z,14.28
2022-09-07T04:06:06.046Z,14.25
2022-09-07T04:08:35.408Z,14.21
2022-09-07T04:11:05.642Z,14.20
2022-09-07T04:13:35.161Z,14.26
2022-09-07T04:16:18.913Z,14.26
2022-09-07T04:18:46.785Z,14.20
2022-09-07T04:21:14.109Z,14.19
2022-09-07T04:23:43.308Z,14.18
2022-09-07T04:26:16.716Z,14.25
2022-09-07T04:28:44.960Z,14.17
2022-09-07T04:31:14.584Z,14.08
2022-09-07T04:33:43.079Z,14.08
2022-09-07T04:36:10.952Z,13.99
2022-09-07T04:38:40.085Z,14.02
2022-09-07T04:41:13.648Z,14.02
2022-09-07T04:43:41.741Z,14.02
2022-09-07T04:46:16.768Z,14.02
2022-09-07T04:48:44.227Z,14.02
2022-09-07T04:51:11.842Z,14.04
2022-09-07T04:53:39.254Z,14.17
2022-09-07T04:56:06.916Z,14.18
2022-09-07T04:58:34.151Z,14.22
2022-09-07T05:05:15.608Z,14.23
2022-09-07T05:07:42.986Z,14.28
2022-09-07T05:10:10.428Z,14.33
2022-09-07T05:12:39.328Z,14.35
2022-09-07T05:15:07.120Z,14.36
2022-09-07T05:17:35.381Z,14.41
2022-09-07T05:20:02.870Z,14.43
2022-09-07T05:22:30.342Z,14.43
2022-09-07T05:24:57.834Z,14.38
2022-09-07T05:27:25.304Z,14.37
2022-09-07T05:30:02.151Z,14.38
2022-09-07T05:32:31.557Z,14.37
2022-09-07T05:34:59.291Z,14.43
2022-09-07T05:37:27.203Z,14.41
2022-09-07T05:39:57.104Z,14.43
2022-09-07T05:42:24.583Z,14.48
2022-09-07T05:44:51.935Z,14.48
2022-09-07T05:47:20.476Z,14.55
2022-09-07T05:49:51.065Z,14.68
2022-09-07T05:52:20.938Z,14.80
2022-09-07T05:54:48.701Z,14.86
2022-09-07T05:57:18.721Z,15.01
2022-09-07T05:59:47.404Z,15.01
2022-09-07T06:02:15.894Z,15.14
2022-09-07T06:04:43.360Z,15.32
2022-09-07T06:07:22.429Z,15.44
2022-09-07T06:13:38.935Z,15.42
2022-09-07T06:16:13.377Z,15.43
2022-09-07T06:18:43.209Z,15.41
2022-09-07T06:21:14.253Z,15.38
2022-09-07T06:23:42.642Z,15.44
2022-09-07T06:26:11.210Z,15.56
2022-09-07T06:28:43.908Z,15.68
2022-09-07T06:31:13.837Z,15.90
2022-09-07T06:33:42.681Z,16.42
2022-09-07T06:36:12.843Z,16.81
2022-09-07T06:38:41.048Z,17.06
2022-09-07T06:44:03.571Z,16.99
2022-09-07T06:49:19.296Z,16.78
2022-09-07T06:51:46.652Z,16.81
2022-09-07T06:57:09.242Z,16.94
2022-09-07T06:59:38.341Z,17.12
2022-09-07T07:02:07.351Z,17.24
2022-09-07T07:04:40.295Z,17.40
2022-09-07T07:07:12.767Z,17.44
2022-09-07T07:09:41.523Z,17.49
2022-09-07T07:12:10.574Z,17.55
2022-09-07T07:14:44.026Z,17.63
2022-09-07T07:17:12.926Z,17.69
2022-09-07T07:19:40.934Z,17.77
2022-09-07T07:22:29.463Z,17.88
2022-09-07T07:24:55.218Z,17.93
2022-09-07T07:27:22.870Z,17.98
2022-09-07T07:29:54.533Z,18.15
2022-09-07T07:32:21.852Z,18.23
2022-09-07T07:34:49.793Z,18.33
2022-09-07T07:37:18.760Z,18.45
2022-09-07T07:42:36.109Z,18.65
2022-09-07T07:47:53.552Z,18.64
2022-09-07T07:50:36.260Z,18.70
2022-09-07T07:55:52.984Z,19.01
2022-09-07T07:58:20.604Z,19.03
2022-09-07T08:00:54.850Z,19.14
2022-09-07T08:03:24.655Z,19.29
2022-09-07T08:05:52.264Z,19.43
2022-09-07T08:08:21.803Z,19.55
2022-09-07T08:10:54.126Z,19.59
2022-09-07T08:13:23.688Z,19.85
2022-09-07T08:15:52.252Z,20.00
2022-09-07T08:18:20.163Z,20.11
2022-09-07T08:20:47.416Z,20.29
2022-09-07T08:23:15.745Z,20.50
2022-09-07T08:25:51.734Z,20.55
2022-09-07T08:28:40.301Z,20.64
2022-09-07T08:31:15.973Z,20.79
2022-09-07T08:33:43.524Z,21.01
2022-09-07T08:36:16.733Z,21.17
2022-09-07T08:38:44.336Z,21.19
2022-09-07T08:41:32.566Z,21.28
2022-09-07T08:44:43.080Z,21.53
2022-09-07T08:47:19.869Z,21.62
2022-09-07T08:49:53.452Z,21.69
2022-09-07T08:52:26.027Z,21.82
2022-09-07T08:55:03.550Z,21.93
2022-09-07T08:57:35.983Z,22.00
2022-09-07T09:00:23.216Z,22.06
2022-09-07T09:05:50.366Z,22.44
2022-09-07T09:08:48.902Z,22.58
2022-09-07T09:11:39.555Z,22.50
2022-09-07T09:14:13.043Z,22.37
2022-09-07T09:16:45.468Z,22.25
2022-09-07T09:19:22.570Z,22.32
2022-09-07T09:22:01.363Z,22.46
2022-09-07T09:24:37.787Z,22.55
2022-09-07T09:27:05.634Z,22.65
2022-09-07T09:29:34.254Z,22.72
2022-09-07T09:32:36.112Z,22.90
2022-09-07T09:35:15.783Z,23.30
2022-09-07T09:37:44.415Z,23.46
2022-09-07T09:40:33.412Z,23.44
2022-09-07T09:43:06.638Z,23.28
2022-09-07T09:48:34.128Z,23.06
2022-09-07T09:54:06.297Z,22.87
2022-09-07T10:04:00.991Z,22.54
2022-09-07T10:06:30.521Z,22.61
2022-09-07T10:09:02.057Z,22.57
2022-09-07T10:14:46.608Z,22.52
2022-09-07T10:17:31.410Z,22.50
2022-09-07T10:20:17.229Z,22.60
2022-09-07T10:23:06.033Z,22.59
2022-09-07T10:25:34.941Z,22.60
2022-09-07T10:28:14.815Z,22.56
2022-09-07T10:31:21.727Z,22.48
2022-09-07T10:34:39.915Z,22.43
2022-09-07T10:37:15.921Z,22.35
2022-09-07T10:40:07.024Z,22.37
2022-09-07T10:42:39.497Z,22.34
2022-09-07T10:45:16.004Z,22.34
2022-09-07T10:48:04.170Z,22.33
2022-09-07T10:50:35.933Z,22.44
2022-09-07T10:53:37.087Z,22.40
2022-09-07T10:56:25.300Z,22.66
2022-09-07T10:59:17.133Z,22.75
2022-09-07T11:02:14.386Z,23.01
2022-09-07T11:04:41.639Z,23.27
2022-09-07T11:07:43.718Z,23.37
2022-09-07T11:10:48.283Z,23.36
2022-09-07T11:13:23.239Z,23.25
2022-09-07T11:15:55.234Z,23.20
2022-09-07T11:18:46.395Z,23.27
2022-09-07T11:21:56.142Z,23.28
2022-09-07T11:24:39.839Z,23.22
2022-09-07T11:27:17.329Z,23.25
2022-09-07T11:29:44.574Z,23.19
2022-09-07T11:32:36.074Z,23.30
2022-09-07T11:35:19.074Z,23.37
2022-09-07T11:37:59.529Z,23.41
2022-09-07T11:40:55.429Z,23.43
2022-09-07T11:43:30.383Z,23.59
2022-09-07T11:46:05.002Z,24.01
2022-09-07T11:48:57.887Z,24.20
2022-09-07T11:51:42.490Z,24.25
2022-09-07T11:54:37.896Z,24.38
2022-09-07T11:57:11.284Z,24.13
2022-09-07T12:00:11.132Z,23.87
2022-09-07T12:02:58.958Z,23.87
2022-09-07T12:05:45.688Z,24.02
2022-09-07T12:08:15.912Z,23.85
2022-09-07T12:10:47.249Z,23.56
2022-09-07T12:13:43.385Z,23.39
2022-09-07T12:16:35.124Z,23.23
2022-09-07T12:19:24.807Z,23.09
2022-09-07T12:21:52.197Z,22.99
2022-09-07T12:24:49.373Z,22.83
2022-09-07T12:27:19.513Z,22.71
2022-09-07T12:29:48.924Z,22.60
2022-09-07T12:32:55.878Z,22.43
2022-09-07T12:35:26.690Z,22.38
2022-09-07T12:38:01.726Z,22.30
2022-09-07T12:40:29.079Z,22.34
2022-09-07T12:43:14.688Z,22.25
2022-09-07T12:45:42.230Z,22.19
2022-09-07T12:48:15.664Z,22.05
2022-09-07T12:50:54.758Z,21.99
2022-09-07T12:53:33.325Z,22.06
2022-09-07T12:56:19.618Z,22.05
2022-09-07T12:58:58.281Z,21.97
2022-09-07T13:01:50.456Z,21.77
2022-09-07T13:04:44.010Z,21.61
2022-09-07T13:07:35.991Z,21.39
2022-09-07T13:10:16.720Z,21.26
2022-09-07T13:12:57.283Z,21.19
2022-09-07T13:15:40.722Z,21.19
2022-09-07T13:18:27.442Z,21.28
2022-09-07T13:21:18.485Z,21.13
2022-09-07T13:27:05.668Z,21.13
2022-09-07T13:29:42.435Z,21.08
2022-09-07T13:32:19.414Z,21.04
2022-09-07T13:34:55.542Z,21.05
2022-09-07T13:37:25.119Z,21.11
2022-09-07T13:39:55.769Z,21.22
2022-09-07T13:42:27.999Z,21.32
2022-09-07T13:45:05.047Z,21.46
2022-09-07T13:47:55.545Z,21.69
2022-09-07T13:50:31.311Z,21.94
2022-09-07T13:53:23.397Z,22.45
2022-09-07T13:56:03.387Z,22.98
2022-09-07T13:58:41.977Z,23.30
2022-09-07T14:01:14.075Z,23.55
2022-09-07T14:04:07.425Z,23.80
2022-09-07T14:06:39.146Z,23.72
2022-09-07T14:09:18.729Z,23.76
2022-09-07T14:11:51.271Z,23.91
2022-09-07T14:14:26.303Z,23.95
2022-09-07T14:17:06.086Z,23.67
2022-09-07T14:19:49.731Z,23.47
2022-09-07T14:22:35.477Z,23.46
2022-09-07T14:25:06.134Z,23.34
2022-09-07T14:27:38.082Z,23.22
2022-09-07T14:30:33.504Z,23.16
2022-09-07T14:33:08.296Z,23.14
2022-09-07T14:35:41.402Z,23.34
2022-09-07T14:41:15.500Z,23.82
2022-09-07T14:43:58.444Z,23.81
2022-09-07T14:46:29.084Z,23.55
2022-09-07T14:49:20.998Z,23.28
2022-09-07T14:51:51.163Z,22.97
2022-09-07T14:54:27.841Z,22.88
2022-09-07T14:57:02.582Z,22.69
2022-09-07T14:59:47.515Z,22.59
2022-09-07T15:02:26.458Z,22.49
2022-09-07T15:05:19.845Z,22.37
2022-09-07T15:07:52.267Z,22.27
2022-09-07T15:10:23.506Z,22.17
2022-09-07T15:12:54.088Z,22.14
2022-09-07T15:15:27.887Z,22.11
2022-09-07T15:18:01.872Z,22.20
2022-09-07T15:20:35.119Z,22.24
2022-09-07T15:23:12.860Z,22.36
2022-09-07T15:25:40.641Z,22.45
2022-09-07T15:29:08.256Z,22.64
2022-09-07T15:33:52.643Z,22.99
2022-09-07T15:36:20.478Z,23.00
2022-09-07T15:39:03.432Z,23.11
2022-09-07T15:41:32.760Z,23.17
2022-09-07T15:44:00.184Z,23.15
2022-09-07T15:46:27.633Z,23.24
2022-09-07T15:48:55.836Z,23.33
2022-09-07T15:54:13.748Z,23.25
2022-09-07T15:56:44.422Z,23.25
2022-09-07T15:59:30.612Z,23.25
2022-09-07T16:01:58.613Z,23.20
2022-09-07T16:04:26.443Z,23.14
2022-09-07T16:06:54.877Z,23.13
2022-09-07T16:09:22.169Z,23.06
2022-09-07T16:11:51.199Z,23.02
2022-09-07T16:14:18.678Z,22.90
2022-09-07T16:19:36.741Z,22.64
2022-09-07T16:22:09.010Z,22.62
2022-09-07T16:24:36.468Z,22.46
2022-09-07T16:27:04.093Z,22.44
2022-09-07T16:29:31.323Z,22.26
2022-09-07T16:34:45.967Z,22.02
2022-09-07T16:37:13.547Z,21.98
2022-09-07T16:39:41.823Z,21.98
2022-09-07T16:42:09.211Z,21.93
2022-09-07T16:44:36.610Z,21.83
2022-09-07T16:47:04.538Z,21.76
2022-09-07T16:49:31.814Z,21.67
2022-09-07T16:51:59.328Z,21.64
2022-09-07T16:54:26.895Z,21.54
2022-09-07T16:56:55.893Z,21.49
2022-09-07T16:59:26.883Z,21.51
2022-09-07T17:01:54.469Z,21.48
2022-09-07T17:04:22.383Z,21.50
2022-09-07T17:06:52.645Z,21.50
2022-09-07T17:09:20.817Z,21.42
2022-09-07T17:11:48.171Z,21.38
2022-09-07T17:14:15.689Z,21.28
2022-09-07T17:16:43.205Z,21.25
2022-09-07T17:22:02.651Z,21.18
2022-09-07T17:24:32.839Z,21.10
2022-09-07T17:27:02.312Z,21.06
2022-09-07T17:29:37.421Z,20.96
2022-09-07T17:34:55.739Z,21.07
2022-09-07T17:37:23.839Z,20.96
2022-09-07T17:39:51.099Z,20.98
2022-09-07T17:42:18.451Z,20.91
2022-09-07T17:44:45.722Z,20.84
2022-09-07T17:47:15.689Z,20.85
2022-09-07T17:49:47.665Z,20.86
2022-09-07T17:52:16.350Z,20.87
2022-09-07T17:54:43.650Z,21.07
2022-09-07T17:57:10.978Z,21.01
2022-09-07T18:02:25.578Z,20.81
2022-09-07T18:04:52.903Z,20.84
2022-09-07T18:07:20.250Z,20.81
2022-09-07T18:09:48.112Z,20.78
2022-09-07T18:12:15.174Z,20.73
2022-09-07T18:14:43.874Z,20.75
2022-09-07T18:17:11.856Z,20.74
2022-09-07T18:19:39.840Z,20.69
2022-09-07T18:22:08.661Z,20.67
2022-09-07T18:24:38.337Z,20.70
2022-09-07T18:27:06.053Z,20.67
2022-09-07T18:29:34.693Z,20.71
2022-09-07T18:32:08.211Z,20.64
2022-09-07T18:34:37.681Z,20.62
2022-09-07T18:37:06.102Z,20.65
2022-09-07T18:39:41.480Z,20.67
2022-09-07T18:42:09.870Z,20.70
2022-09-07T18:47:29.799Z,20.68
2022-09-07T18:49:58.340Z,20.64
2022-09-07T18:55:14.117Z,20.53
2022-09-07T18:57:41.612Z,20.49
2022-09-07T19:00:11.496Z,20.50
2022-09-07T19:02:42.582Z,20.53
2022-09-07T19:08:04.094Z,20.57
2022-09-07T19:10:36.760Z,20.62
2022-09-07T19:13:04.634Z,20.58
2022-09-07T19:15:37.410Z,20.50
2022-09-07T19:18:06.751Z,20.33
2022-09-07T19:20:35.210Z,20.20
2022-09-07T19:23:04.442Z,20.20
2022-09-07T19:25:33.313Z,20.13
2022-09-07T19:28:01.226Z,20.07
2022-09-07T19:30:28.741Z,20.03
2022-09-07T19:32:58.587Z,19.93
2022-09-07T19:35:29.103Z,19.65
2022-09-07T19:37:56.400Z,19.60
2022-09-07T19:40:23.926Z,19.51
2022-09-07T19:42:52.111Z,19.40
2022-09-07T19:45:19.616Z,19.40
2022-09-07T19:47:49.265Z,19.35
2022-09-07T19:50:17.232Z,19.32
2022-09-07T19:52:48.105Z,19.30
2022-09-07T19:55:17.166Z,19.37
2022-09-07T19:57:47.888Z,19.48
2022-09-07T20:00:19.355Z,19.53
2022-09-07T20:02:50.243Z,19.58
2022-09-07T20:05:18.883Z,19.54
2022-09-07T20:07:46.599Z,19.52
2022-09-07T20:10:14.362Z,19.45
2022-09-07T20:12:41.927Z,19.43
2022-09-07T20:15:10.237Z,19.41
2022-09-07T20:17:37.740Z,19.41
2022-09-07T20:20:06.178Z,19.37
2022-09-07T20:22:33.588Z,19.34
2022-09-07T20:25:00.880Z,19.31
2022-09-07T20:27:30.181Z,19.26
2022-09-07T20:29:58.267Z,19.22
2022-09-07T20:32:27.862Z,19.16
2022-09-07T20:34:55.220Z,19.17
2022-09-07T20:37:26.674Z,19.18
2022-09-07T20:39:54.872Z,19.22
2022-09-07T20:42:22.250Z,19.24
2022-09-07T20:44:49.553Z,19.21
2022-09-07T20:47:16.740Z,19.19
2022-09-07T20:49:44.874Z,19.23
2022-09-07T20:52:12.107Z,19.17
2022-09-07T20:54:39.354Z,19.07
2022-09-07T20:57:06.578Z,19.03
2022-09-07T20:59:33.780Z,18.98
2022-09-07T21:02:00.982Z,18.86
2022-09-07T21:04:28.502Z,18.87
2022-09-07T21:06:55.748Z,18.87
2022-09-07T21:09:23.091Z,18.93
2022-09-07T21:11:53.091Z,18.93
2022-09-07T21:14:23.927Z,18.89
2022-09-07T21:16:51.146Z,18.87
2022-09-07T21:19:18.490Z,18.90
2022-09-07T21:21:45.731Z,18.87
2022-09-07T21:24:22.803Z,18.89
2022-09-07T21:26:51.220Z,18.86
2022-09-07T21:29:24.214Z,18.80
2022-09-07T21:31:55.542Z,18.79
2022-09-07T21:34:23.073Z,18.81
2022-09-07T21:36:50.785Z,18.81
2022-09-07T21:39:18.780Z,18.79
2022-09-07T21:41:45.853Z,18.78
2022-09-07T21:44:15.649Z,18.79
2022-09-07T21:46:44.480Z,18.75
2022-09-07T21:49:12.345Z,18.67
2022-09-07T21:51:39.688Z,18.66
2022-09-07T21:54:07.000Z,18.64
2022-09-07T21:56:34.557Z,18.56
2022-09-07T21:59:02.658Z,18.58
2022-09-07T22:01:31.060Z,18.55
2022-09-07T22:04:01.320Z,18.51
2022-09-07T22:06:29.742Z,18.55
2022-09-07T22:08:57.057Z,18.50
2022-09-07T22:11:26.009Z,18.44
2022-09-07T22:14:02.027Z,18.42
2022-09-07T22:16:30.666Z,18.32
2022-09-07T22:18:58.139Z,18.28
2022-09-07T22:21:27.506Z,18.31
2022-09-07T22:23:57.418Z,18.23
2022-09-07T22:26:26.997Z,18.09
2022-09-07T22:28:54.919Z,18.02
2022-09-07T22:31:28.246Z,18.04
2022-09-07T22:33:56.878Z,18.08
2022-09-07T22:36:30.169Z,17.95
2022-09-07T22:38:59.892Z,17.88
2022-09-07T22:41:29.756Z,17.85
2022-09-07T22:43:58.468Z,17.79
2022-09-07T22:46:28.190Z,17.77
2022-09-07T22:48:57.370Z,17.77
2022-09-07T22:51:26.722Z,17.80
2022-09-07T22:53:55.411Z,17.72
2022-09-07T22:56:25.258Z,17.71
2022-09-07T22:58:55.376Z,17.70
2022-09-07T23:01:23.634Z,17.66
2022-09-07T23:03:51.591Z,17.64
2022-09-07T23:06:29.630Z,17.61
2022-09-07T23:08:58.795Z,17.63
2022-09-07T23:11:26.870Z,17.63
2022-09-07T23:13:56.969Z,17.56
2022-09-07T23:16:25.659Z,17.53
2022-09-07T23:18:53.245Z,17.44
2022-09-07T23:21:20.842Z,17.36
2022-09-07T23:24:01.456Z,17.36
2022-09-07T23:26:31.404Z,17.38
2022-09-07T23:29:01.191Z,17.36
2022-09-07T23:31:32.246Z,17.33
2022-09-07T23:34:01.119Z,17.27
2022-09-07T23:36:28.562Z,17.28
2022-09-07T23:38:57.445Z,17.33
2022-09-07T23:41:25.803Z,17.31
2022-09-07T23:43:54.336Z,17.26
2022-09-07T23:46:22.171Z,17.36
2022-09-07T23:48:49.444Z,17.30
2022-09-07T23:51:22.799Z,17.25
2022-09-07T23:53:51.971Z,17.21
2022-09-07T23:56:19.198Z,17.20
2022-09-07T23:58:46.318Z,17.08
